sensor_id;sensor_type;location;lat;lon;timestamp;P1;durP1;ratioP1;P2;durP2;ratioP2
10463;SDS011;5279;42.048;24.638;2022-11-15T00:01:15;6.57;;;5.87;;
10463;SDS011;5279;42.048;24.638;2022-11-15T00:03:44;9.57;;;7.57;;
10463;SDS011;5279;42.048;24.638;2022-11-15T00:06:14;7.07;;;5.57;;
10463;SDS011;5279;42.048;24.638;2022-11-15T00:08:42;5.53;;;4.80;;
10463;SDS011;5279;42.048;24.638;2022-11-15T00:11:10;6.73;;;6.03;;
10463;SDS011;5279;42.048;24.638;2022-11-15T00:13:40;6.40;;;5.70;;
10463;SDS011;5279;42.048;24.638;2022-11-15T00:16:08;9.47;;;6.63;;
10463;SDS011;5279;42.048;24.638;2022-11-15T00:18:53;9.90;;;7.17;;
10463;SDS011;5279;42.048;24.638;2022-11-15T00:21:22;7.57;;;5.50;;
10463;SDS011;5279;42.048;24.638;2022-11-15T00:23:49;5.97;;;5.37;;
10463;SDS011;5279;42.048;24.638;2022-11-15T00:26:16;7.47;;;5.30;;
10463;SDS011;5279;42.048;24.638;2022-11-15T00:28:44;6.07;;;5.23;;
10463;SDS011;5279;42.048;24.638;2022-11-15T00:31:12;7.23;;;5.60;;
10463;SDS011;5279;42.048;24.638;2022-11-15T00:33:39;8.17;;;5.90;;
10463;SDS011;5279;42.048;24.638;2022-11-15T00:36:09;6.30;;;5.60;;
10463;SDS011;5279;42.048;24.638;2022-11-15T00:38:37;13.27;;;6.93;;
10463;SDS011;5279;42.048;24.638;2022-11-15T00:41:06;8.37;;;7.30;;
10463;SDS011;5279;42.048;24.638;2022-11-15T00:43:33;9.00;;;6.60;;
10463;SDS011;5279;42.048;24.638;2022-11-15T00:46:01;10.23;;;5.87;;
10463;SDS011;5279;42.048;24.638;2022-11-15T00:48:29;6.10;;;5.07;;
10463;SDS011;5279;42.048;24.638;2022-11-15T00:50:57;7.77;;;6.33;;
10463;SDS011;5279;42.048;24.638;2022-11-15T00:53:25;8.77;;;6.53;;
10463;SDS011;5279;42.048;24.638;2022-11-15T00:55:52;6.20;;;5.60;;
10463;SDS011;5279;42.048;24.638;2022-11-15T00:58:19;5.60;;;4.60;;
10463;SDS011;5279;42.048;24.638;2022-11-15T01:00:46;5.83;;;5.07;;
10463;SDS011;5279;42.048;24.638;2022-11-15T01:03:14;6.67;;;5.40;;
10463;SDS011;5279;42.048;24.638;2022-11-15T01:05:42;5.33;;;4.73;;
10463;SDS011;5279;42.048;24.638;2022-11-15T01:08:11;5.87;;;5.13;;
10463;SDS011;5279;42.048;24.638;2022-11-15T01:10:39;5.17;;;4.67;;
10463;SDS011;5279;42.048;24.638;2022-11-15T01:13:06;5.43;;;4.77;;
10463;SDS011;5279;42.048;24.638;2022-11-15T01:15:34;5.90;;;4.73;;
10463;SDS011;5279;42.048;24.638;2022-11-15T01:18:00;7.17;;;4.53;;
10463;SDS011;5279;42.048;24.638;2022-11-15T01:20:29;4.97;;;4.47;;
10463;SDS011;5279;42.048;24.638;2022-11-15T01:22:56;5.63;;;4.63;;
10463;SDS011;5279;42.048;24.638;2022-11-15T01:25:23;5.80;;;4.83;;
10463;SDS011;5279;42.048;24.638;2022-11-15T01:27:49;5.50;;;4.93;;
10463;SDS011;5279;42.048;24.638;2022-11-15T01:30:16;5.30;;;4.80;;
10463;SDS011;5279;42.048;24.638;2022-11-15T01:32:46;6.90;;;4.70;;
10463;SDS011;5279;42.048;24.638;2022-11-15T01:35:13;8.03;;;4.80;;
10463;SDS011;5279;42.048;24.638;2022-11-15T01:37:42;6.10;;;5.23;;
10463;SDS011;5279;42.048;24.638;2022-11-15T01:40:09;6.03;;;4.80;;
10463;SDS011;5279;42.048;24.638;2022-11-15T01:42:37;5.20;;;4.60;;
10463;SDS011;5279;42.048;24.638;2022-11-15T01:45:04;5.93;;;5.10;;
10463;SDS011;5279;42.048;24.638;2022-11-15T01:47:33;5.60;;;4.87;;
10463;SDS011;5279;42.048;24.638;2022-11-15T01:50:08;6.03;;;4.80;;
10463;SDS011;5279;42.048;24.638;2022-11-15T01:52:38;4.87;;;4.03;;
10463;SDS011;5279;42.048;24.638;2022-11-15T01:55:09;6.40;;;4.50;;
10463;SDS011;5279;42.048;24.638;2022-11-15T01:57:42;4.53;;;4.10;;
10463;SDS011;5279;42.048;24.638;2022-11-15T02:00:12;4.40;;;4.00;;
10463;SDS011;5279;42.048;24.638;2022-11-15T02:02:40;4.40;;;4.00;;
10463;SDS011;5279;42.048;24.638;2022-11-15T02:05:07;5.23;;;3.87;;
10463;SDS011;5279;42.048;24.638;2022-11-15T02:07:35;4.83;;;4.30;;
10463;SDS011;5279;42.048;24.638;2022-11-15T02:10:04;4.53;;;4.13;;
10463;SDS011;5279;42.048;24.638;2022-11-15T02:12:35;5.07;;;4.20;;
10463;SDS011;5279;42.048;24.638;2022-11-15T02:15:03;4.93;;;4.43;;
10463;SDS011;5279;42.048;24.638;2022-11-15T02:17:36;9.27;;;4.90;;
10463;SDS011;5279;42.048;24.638;2022-11-15T02:20:35;6.00;;;4.07;;
10463;SDS011;5279;42.048;24.638;2022-11-15T02:26:12;4.90;;;4.40;;
10463;SDS011;5279;42.048;24.638;2022-11-15T02:28:54;5.90;;;4.73;;
10463;SDS011;5279;42.048;24.638;2022-11-15T02:31:28;5.37;;;4.87;;
10463;SDS011;5279;42.048;24.638;2022-11-15T02:34:04;4.43;;;4.03;;
10463;SDS011;5279;42.048;24.638;2022-11-15T02:36:40;4.60;;;4.10;;
10463;SDS011;5279;42.048;24.638;2022-11-15T02:39:16;4.47;;;4.03;;
10463;SDS011;5279;42.048;24.638;2022-11-15T02:41:51;3.90;;;3.50;;
10463;SDS011;5279;42.048;24.638;2022-11-15T02:44:23;5.53;;;4.83;;
10463;SDS011;5279;42.048;24.638;2022-11-15T02:46:54;4.47;;;4.07;;
10463;SDS011;5279;42.048;24.638;2022-11-15T02:49:42;5.77;;;4.77;;
10463;SDS011;5279;42.048;24.638;2022-11-15T02:52:14;4.20;;;3.80;;
10463;SDS011;5279;42.048;24.638;2022-11-15T02:54:42;4.67;;;4.17;;
10463;SDS011;5279;42.048;24.638;2022-11-15T02:57:11;4.97;;;4.10;;
10463;SDS011;5279;42.048;24.638;2022-11-15T02:59:52;4.07;;;3.67;;
10463;SDS011;5279;42.048;24.638;2022-11-15T03:02:35;4.40;;;3.70;;
10463;SDS011;5279;42.048;24.638;2022-11-15T03:05:13;3.90;;;3.50;;
10463;SDS011;5279;42.048;24.638;2022-11-15T03:07:51;5.80;;;4.93;;
10463;SDS011;5279;42.048;24.638;2022-11-15T03:10:24;7.63;;;4.50;;
10463;SDS011;5279;42.048;24.638;2022-11-15T03:12:59;6.13;;;4.07;;
10463;SDS011;5279;42.048;24.638;2022-11-15T03:15:36;4.23;;;3.83;;
10463;SDS011;5279;42.048;24.638;2022-11-15T03:18:12;8.47;;;3.93;;
10463;SDS011;5279;42.048;24.638;2022-11-15T03:20:46;4.07;;;3.67;;
10463;SDS011;5279;42.048;24.638;2022-11-15T03:23:14;4.53;;;4.00;;
10463;SDS011;5279;42.048;24.638;2022-11-15T03:25:43;7.90;;;5.07;;
10463;SDS011;5279;42.048;24.638;2022-11-15T03:28:16;4.37;;;3.83;;
10463;SDS011;5279;42.048;24.638;2022-11-15T03:30:47;6.03;;;4.07;;
10463;SDS011;5279;42.048;24.638;2022-11-15T03:33:17;6.67;;;4.30;;
10463;SDS011;5279;42.048;24.638;2022-11-15T03:35:46;4.93;;;4.43;;
10463;SDS011;5279;42.048;24.638;2022-11-15T03:38:15;4.57;;;3.87;;
10463;SDS011;5279;42.048;24.638;2022-11-15T03:40:49;4.97;;;4.00;;
10463;SDS011;5279;42.048;24.638;2022-11-15T03:43:35;6.63;;;5.83;;
10463;SDS011;5279;42.048;24.638;2022-11-15T03:46:05;8.90;;;7.70;;
10463;SDS011;5279;42.048;24.638;2022-11-15T03:48:39;7.57;;;5.60;;
10463;SDS011;5279;42.048;24.638;2022-11-15T03:51:09;5.60;;;3.97;;
10463;SDS011;5279;42.048;24.638;2022-11-15T03:53:37;5.70;;;4.63;;
10463;SDS011;5279;42.048;24.638;2022-11-15T03:56:04;5.33;;;4.80;;
10463;SDS011;5279;42.048;24.638;2022-11-15T03:58:31;8.27;;;6.83;;
10463;SDS011;5279;42.048;24.638;2022-11-15T04:00:58;6.33;;;5.33;;
10463;SDS011;5279;42.048;24.638;2022-11-15T04:03:25;5.57;;;4.97;;
10463;SDS011;5279;42.048;24.638;2022-11-15T04:05:54;6.03;;;5.00;;
10463;SDS011;5279;42.048;24.638;2022-11-15T04:08:21;9.40;;;7.37;;
10463;SDS011;5279;42.048;24.638;2022-11-15T04:10:48;7.60;;;6.50;;
10463;SDS011;5279;42.048;24.638;2022-11-15T04:13:15;6.90;;;4.90;;
10463;SDS011;5279;42.048;24.638;2022-11-15T04:15:42;5.90;;;5.20;;
10463;SDS011;5279;42.048;24.638;2022-11-15T04:18:09;5.73;;;4.30;;
10463;SDS011;5279;42.048;24.638;2022-11-15T04:20:36;5.30;;;4.70;;
10463;SDS011;5279;42.048;24.638;2022-11-15T04:23:22;7.70;;;6.80;;
10463;SDS011;5279;42.048;24.638;2022-11-15T04:26:08;12.77;;;8.93;;
10463;SDS011;5279;42.048;24.638;2022-11-15T04:28:37;13.10;;;10.37;;
10463;SDS011;5279;42.048;24.638;2022-11-15T04:31:24;8.27;;;7.27;;
10463;SDS011;5279;42.048;24.638;2022-11-15T04:33:51;8.73;;;7.00;;
10463;SDS011;5279;42.048;24.638;2022-11-15T04:36:19;10.83;;;8.87;;
10463;SDS011;5279;42.048;24.638;2022-11-15T04:39:06;11.70;;;8.17;;
10463;SDS011;5279;42.048;24.638;2022-11-15T04:41:36;10.73;;;8.67;;
10463;SDS011;5279;42.048;24.638;2022-11-15T04:44:06;10.53;;;8.47;;
10463;SDS011;5279;42.048;24.638;2022-11-15T04:46:33;12.33;;;10.03;;
10463;SDS011;5279;42.048;24.638;2022-11-15T04:49:00;8.97;;;6.63;;
10463;SDS011;5279;42.048;24.638;2022-11-15T04:51:27;6.83;;;6.13;;
10463;SDS011;5279;42.048;24.638;2022-11-15T04:53:54;8.23;;;5.97;;
10463;SDS011;5279;42.048;24.638;2022-11-15T04:56:22;7.57;;;6.33;;
10463;SDS011;5279;42.048;24.638;2022-11-15T04:58:49;7.83;;;6.50;;
10463;SDS011;5279;42.048;24.638;2022-11-15T05:01:16;7.37;;;6.53;;
10463;SDS011;5279;42.048;24.638;2022-11-15T05:03:43;11.70;;;8.90;;
10463;SDS011;5279;42.048;24.638;2022-11-15T05:06:28;12.03;;;9.43;;
10463;SDS011;5279;42.048;24.638;2022-11-15T05:08:58;6.10;;;5.50;;
10463;SDS011;5279;42.048;24.638;2022-11-15T05:11:26;9.63;;;6.77;;
10463;SDS011;5279;42.048;24.638;2022-11-15T05:13:54;11.20;;;9.00;;
10463;SDS011;5279;42.048;24.638;2022-11-15T05:16:21;7.20;;;5.03;;
10463;SDS011;5279;42.048;24.638;2022-11-15T05:18:50;5.77;;;5.17;;
10463;SDS011;5279;42.048;24.638;2022-11-15T05:21:17;8.80;;;5.37;;
10463;SDS011;5279;42.048;24.638;2022-11-15T05:23:44;6.93;;;5.60;;
10463;SDS011;5279;42.048;24.638;2022-11-15T05:26:12;8.03;;;6.57;;
10463;SDS011;5279;42.048;24.638;2022-11-15T05:28:40;7.67;;;6.60;;
10463;SDS011;5279;42.048;24.638;2022-11-15T05:31:08;8.50;;;6.10;;
10463;SDS011;5279;42.048;24.638;2022-11-15T05:33:36;10.13;;;6.03;;
10463;SDS011;5279;42.048;24.638;2022-11-15T05:36:05;7.53;;;5.93;;
10463;SDS011;5279;42.048;24.638;2022-11-15T05:38:36;7.40;;;6.33;;
10463;SDS011;5279;42.048;24.638;2022-11-15T05:41:03;8.60;;;6.33;;
10463;SDS011;5279;42.048;24.638;2022-11-15T05:43:31;7.00;;;6.07;;
10463;SDS011;5279;42.048;24.638;2022-11-15T05:46:02;8.60;;;5.73;;
10463;SDS011;5279;42.048;24.638;2022-11-15T05:48:31;6.90;;;5.93;;
10463;SDS011;5279;42.048;24.638;2022-11-15T05:50:58;8.23;;;6.80;;
10463;SDS011;5279;42.048;24.638;2022-11-15T05:53:27;8.60;;;7.13;;
10463;SDS011;5279;42.048;24.638;2022-11-15T05:55:54;8.13;;;6.70;;
10463;SDS011;5279;42.048;24.638;2022-11-15T05:58:20;7.90;;;7.10;;
10463;SDS011;5279;42.048;24.638;2022-11-15T06:00:47;11.83;;;9.10;;
10463;SDS011;5279;42.048;24.638;2022-11-15T06:03:16;7.17;;;6.30;;
10463;SDS011;5279;42.048;24.638;2022-11-15T06:05:43;7.20;;;6.20;;
10463;SDS011;5279;42.048;24.638;2022-11-15T06:08:10;7.90;;;6.40;;
10463;SDS011;5279;42.048;24.638;2022-11-15T06:10:37;7.47;;;6.37;;
10463;SDS011;5279;42.048;24.638;2022-11-15T06:13:04;6.63;;;5.80;;
10463;SDS011;5279;42.048;24.638;2022-11-15T06:15:31;7.47;;;5.43;;
10463;SDS011;5279;42.048;24.638;2022-11-15T06:17:59;8.30;;;6.10;;
10463;SDS011;5279;42.048;24.638;2022-11-15T06:20:28;6.77;;;6.07;;
10463;SDS011;5279;42.048;24.638;2022-11-15T06:22:56;6.97;;;6.10;;
10463;SDS011;5279;42.048;24.638;2022-11-15T06:25:24;7.10;;;6.40;;
10463;SDS011;5279;42.048;24.638;2022-11-15T06:27:51;6.17;;;5.57;;
10463;SDS011;5279;42.048;24.638;2022-11-15T06:30:19;7.80;;;5.73;;
10463;SDS011;5279;42.048;24.638;2022-11-15T06:32:48;6.70;;;6.00;;
10463;SDS011;5279;42.048;24.638;2022-11-15T06:35:15;6.10;;;5.50;;
10463;SDS011;5279;42.048;24.638;2022-11-15T06:37:44;6.87;;;6.17;;
10463;SDS011;5279;42.048;24.638;2022-11-15T06:40:11;6.03;;;5.43;;
10463;SDS011;5279;42.048;24.638;2022-11-15T06:42:38;5.70;;;5.00;;
10463;SDS011;5279;42.048;24.638;2022-11-15T06:45:05;6.03;;;5.20;;
10463;SDS011;5279;42.048;24.638;2022-11-15T06:47:32;6.87;;;5.70;;
10463;SDS011;5279;42.048;24.638;2022-11-15T06:49:59;8.77;;;5.73;;
10463;SDS011;5279;42.048;24.638;2022-11-15T06:52:26;6.47;;;5.00;;
10463;SDS011;5279;42.048;24.638;2022-11-15T06:54:58;5.50;;;4.93;;
10463;SDS011;5279;42.048;24.638;2022-11-15T06:57:25;6.03;;;4.93;;
10463;SDS011;5279;42.048;24.638;2022-11-15T06:59:52;6.30;;;5.10;;
10463;SDS011;5279;42.048;24.638;2022-11-15T07:02:19;7.00;;;5.67;;
10463;SDS011;5279;42.048;24.638;2022-11-15T07:04:47;5.90;;;5.30;;
10463;SDS011;5279;42.048;24.638;2022-11-15T07:07:14;8.37;;;5.50;;
10463;SDS011;5279;42.048;24.638;2022-11-15T07:09:41;7.63;;;5.70;;
10463;SDS011;5279;42.048;24.638;2022-11-15T07:12:10;6.23;;;5.63;;
10463;SDS011;5279;42.048;24.638;2022-11-15T07:14:36;7.93;;;5.97;;
10463;SDS011;5279;42.048;24.638;2022-11-15T07:17:03;6.13;;;5.53;;
10463;SDS011;5279;42.048;24.638;2022-11-15T07:19:31;7.80;;;6.03;;
10463;SDS011;5279;42.048;24.638;2022-11-15T07:21:58;6.30;;;5.70;;
10463;SDS011;5279;42.048;24.638;2022-11-15T07:24:24;7.80;;;7.00;;
10463;SDS011;5279;42.048;24.638;2022-11-15T07:26:51;8.67;;;6.63;;
10463;SDS011;5279;42.048;24.638;2022-11-15T07:29:28;9.80;;;7.23;;
10463;SDS011;5279;42.048;24.638;2022-11-15T07:31:55;9.10;;;7.00;;
10463;SDS011;5279;42.048;24.638;2022-11-15T07:34:22;7.27;;;6.53;;
10463;SDS011;5279;42.048;24.638;2022-11-15T07:36:49;8.43;;;6.77;;
10463;SDS011;5279;42.048;24.638;2022-11-15T07:39:16;8.17;;;6.63;;
10463;SDS011;5279;42.048;24.638;2022-11-15T07:41:43;8.23;;;6.90;;
10463;SDS011;5279;42.048;24.638;2022-11-15T07:44:17;8.37;;;6.30;;
10463;SDS011;5279;42.048;24.638;2022-11-15T07:46:45;7.77;;;6.97;;
10463;SDS011;5279;42.048;24.638;2022-11-15T07:49:12;7.93;;;7.23;;
10463;SDS011;5279;42.048;24.638;2022-11-15T07:51:39;7.80;;;7.00;;
10463;SDS011;5279;42.048;24.638;2022-11-15T07:54:06;8.63;;;7.73;;
10463;SDS011;5279;42.048;24.638;2022-11-15T07:56:33;9.30;;;7.67;;
10463;SDS011;5279;42.048;24.638;2022-11-15T07:59:00;9.67;;;8.23;;
10463;SDS011;5279;42.048;24.638;2022-11-15T08:01:27;9.70;;;8.70;;
10463;SDS011;5279;42.048;24.638;2022-11-15T08:03:55;12.63;;;9.17;;
10463;SDS011;5279;42.048;24.638;2022-11-15T08:06:22;11.13;;;9.53;;
10463;SDS011;5279;42.048;24.638;2022-11-15T08:08:48;10.20;;;9.20;;
10463;SDS011;5279;42.048;24.638;2022-11-15T08:11:15;13.27;;;11.27;;
10463;SDS011;5279;42.048;24.638;2022-11-15T08:13:42;16.63;;;10.80;;
10463;SDS011;5279;42.048;24.638;2022-11-15T08:16:09;12.93;;;10.50;;
10463;SDS011;5279;42.048;24.638;2022-11-15T08:18:37;14.67;;;11.80;;
10463;SDS011;5279;42.048;24.638;2022-11-15T08:21:05;14.03;;;11.93;;
10463;SDS011;5279;42.048;24.638;2022-11-15T08:23:32;14.50;;;11.47;;
10463;SDS011;5279;42.048;24.638;2022-11-15T08:25:59;14.10;;;11.73;;
10463;SDS011;5279;42.048;24.638;2022-11-15T08:28:27;16.27;;;12.60;;
10463;SDS011;5279;42.048;24.638;2022-11-15T08:30:54;14.03;;;11.07;;
10463;SDS011;5279;42.048;24.638;2022-11-15T08:33:21;13.40;;;11.73;;
10463;SDS011;5279;42.048;24.638;2022-11-15T08:35:48;14.00;;;11.63;;
10463;SDS011;5279;42.048;24.638;2022-11-15T08:38:17;13.70;;;11.80;;
10463;SDS011;5279;42.048;24.638;2022-11-15T08:40:50;14.67;;;11.33;;
10463;SDS011;5279;42.048;24.638;2022-11-15T08:43:17;14.23;;;10.87;;
10463;SDS011;5279;42.048;24.638;2022-11-15T08:45:44;13.10;;;11.77;;
10463;SDS011;5279;42.048;24.638;2022-11-15T08:48:11;14.70;;;12.77;;
10463;SDS011;5279;42.048;24.638;2022-11-15T08:50:38;14.00;;;12.10;;
10463;SDS011;5279;42.048;24.638;2022-11-15T08:53:05;14.63;;;11.90;;
10463;SDS011;5279;42.048;24.638;2022-11-15T08:55:37;13.10;;;11.70;;
10463;SDS011;5279;42.048;24.638;2022-11-15T08:58:04;14.03;;;12.20;;
10463;SDS011;5279;42.048;24.638;2022-11-15T09:00:32;14.97;;;12.13;;
10463;SDS011;5279;42.048;24.638;2022-11-15T09:02:59;13.80;;;12.23;;
10463;SDS011;5279;42.048;24.638;2022-11-15T09:05:26;14.10;;;12.67;;
10463;SDS011;5279;42.048;24.638;2022-11-15T09:07:53;13.80;;;12.10;;
10463;SDS011;5279;42.048;24.638;2022-11-15T09:10:20;14.40;;;12.77;;
10463;SDS011;5279;42.048;24.638;2022-11-15T09:12:49;14.07;;;12.27;;
10463;SDS011;5279;42.048;24.638;2022-11-15T09:15:16;14.83;;;11.63;;
10463;SDS011;5279;42.048;24.638;2022-11-15T09:17:43;13.07;;;11.63;;
10463;SDS011;5279;42.048;24.638;2022-11-15T09:20:10;14.07;;;11.30;;
10463;SDS011;5279;42.048;24.638;2022-11-15T09:22:37;12.20;;;11.00;;
10463;SDS011;5279;42.048;24.638;2022-11-15T09:25:05;12.97;;;11.50;;
10463;SDS011;5279;42.048;24.638;2022-11-15T09:27:33;12.57;;;11.00;;
10463;SDS011;5279;42.048;24.638;2022-11-15T09:30:01;12.13;;;10.47;;
10463;SDS011;5279;42.048;24.638;2022-11-15T09:32:28;12.57;;;11.17;;
10463;SDS011;5279;42.048;24.638;2022-11-15T09:34:56;12.53;;;11.17;;
10463;SDS011;5279;42.048;24.638;2022-11-15T09:37:26;14.40;;;13.00;;
10463;SDS011;5279;42.048;24.638;2022-11-15T09:39:53;14.10;;;12.73;;
10463;SDS011;5279;42.048;24.638;2022-11-15T09:42:25;14.03;;;12.63;;
10463;SDS011;5279;42.048;24.638;2022-11-15T09:45:15;14.13;;;12.67;;
10463;SDS011;5279;42.048;24.638;2022-11-15T09:47:53;14.30;;;12.90;;
10463;SDS011;5279;42.048;24.638;2022-11-15T09:50:31;14.47;;;13.03;;
10463;SDS011;5279;42.048;24.638;2022-11-15T09:53:03;14.40;;;12.90;;
10463;SDS011;5279;42.048;24.638;2022-11-15T09:55:32;14.23;;;12.77;;
10463;SDS011;5279;42.048;24.638;2022-11-15T09:58:15;13.73;;;12.33;;
10463;SDS011;5279;42.048;24.638;2022-11-15T10:00:49;13.57;;;12.27;;
10463;SDS011;5279;42.048;24.638;2022-11-15T10:03:20;13.70;;;12.00;;
10463;SDS011;5279;42.048;24.638;2022-11-15T10:05:53;12.32;;;11.13;;
10463;SDS011;5279;42.048;24.638;2022-11-15T10:11:23;15.45;;;12.35;;
10463;SDS011;5279;42.048;24.638;2022-11-15T10:13:53;13.77;;;12.45;;
10463;SDS011;5279;42.048;24.638;2022-11-15T10:19:30;14.18;;;12.80;;
10463;SDS011;5279;42.048;24.638;2022-11-15T10:22:10;13.10;;;11.85;;
10463;SDS011;5279;42.048;24.638;2022-11-15T10:27:44;12.95;;;11.65;;
10463;SDS011;5279;42.048;24.638;2022-11-15T10:30:17;13.48;;;12.25;;
10463;SDS011;5279;42.048;24.638;2022-11-15T10:32:47;13.40;;;12.15;;
10463;SDS011;5279;42.048;24.638;2022-11-15T10:35:16;13.88;;;12.63;;
10463;SDS011;5279;42.048;24.638;2022-11-15T10:37:45;12.30;;;11.10;;
10463;SDS011;5279;42.048;24.638;2022-11-15T10:40:16;14.30;;;12.88;;
10463;SDS011;5279;42.048;24.638;2022-11-15T10:42:45;13.20;;;11.90;;
10463;SDS011;5279;42.048;24.638;2022-11-15T10:50:51;14.65;;;13.25;;
10463;SDS011;5279;42.048;24.638;2022-11-15T10:53:24;14.30;;;12.93;;
10463;SDS011;5279;42.048;24.638;2022-11-15T10:55:57;13.63;;;12.43;;
10463;SDS011;5279;42.048;24.638;2022-11-15T10:58:34;14.30;;;12.95;;
10463;SDS011;5279;42.048;24.638;2022-11-15T11:01:10;13.95;;;12.57;;
10463;SDS011;5279;42.048;24.638;2022-11-15T11:03:41;14.95;;;12.88;;
10463;SDS011;5279;42.048;24.638;2022-11-15T11:06:10;13.95;;;12.60;;
10463;SDS011;5279;42.048;24.638;2022-11-15T11:08:53;13.40;;;12.07;;
10463;SDS011;5279;42.048;24.638;2022-11-15T11:11:21;14.43;;;13.02;;
10463;SDS011;5279;42.048;24.638;2022-11-15T11:13:48;15.30;;;13.90;;
10463;SDS011;5279;42.048;24.638;2022-11-15T11:22:12;12.63;;;11.43;;
10463;SDS011;5279;42.048;24.638;2022-11-15T11:24:48;14.10;;;12.65;;
10463;SDS011;5279;42.048;24.638;2022-11-15T11:27:27;14.23;;;12.82;;
10463;SDS011;5279;42.048;24.638;2022-11-15T11:30:05;14.68;;;12.45;;
10463;SDS011;5279;42.048;24.638;2022-11-15T11:32:40;14.05;;;12.63;;
10463;SDS011;5279;42.048;24.638;2022-11-15T11:35:24;14.88;;;13.55;;
10463;SDS011;5279;42.048;24.638;2022-11-15T11:37:59;13.98;;;12.68;;
10463;SDS011;5279;42.048;24.638;2022-11-15T11:40:39;13.98;;;12.57;;
10463;SDS011;5279;42.048;24.638;2022-11-15T11:43:11;14.73;;;13.30;;
10463;SDS011;5279;42.048;24.638;2022-11-15T11:45:55;13.88;;;12.57;;
10463;SDS011;5279;42.048;24.638;2022-11-15T11:48:39;15.40;;;12.93;;
10463;SDS011;5279;42.048;24.638;2022-11-15T11:51:12;14.85;;;13.45;;
10463;SDS011;5279;42.048;24.638;2022-11-15T11:53:45;14.82;;;13.32;;
10463;SDS011;5279;42.048;24.638;2022-11-15T11:56:21;13.82;;;12.43;;
10463;SDS011;5279;42.048;24.638;2022-11-15T11:58:52;13.90;;;12.52;;
10463;SDS011;5279;42.048;24.638;2022-11-15T12:01:22;14.63;;;13.23;;
10463;SDS011;5279;42.048;24.638;2022-11-15T12:03:52;14.02;;;12.32;;
10463;SDS011;5279;42.048;24.638;2022-11-15T12:06:27;16.17;;;13.52;;
10463;SDS011;5279;42.048;24.638;2022-11-15T12:09:00;14.18;;;12.65;;
10463;SDS011;5279;42.048;24.638;2022-11-15T12:11:34;13.88;;;12.57;;
10463;SDS011;5279;42.048;24.638;2022-11-15T12:14:05;14.05;;;12.50;;
10463;SDS011;5279;42.048;24.638;2022-11-15T12:16:45;15.05;;;13.50;;
10463;SDS011;5279;42.048;24.638;2022-11-15T12:19:12;15.73;;;13.57;;
10463;SDS011;5279;42.048;24.638;2022-11-15T12:21:41;15.35;;;13.75;;
10463;SDS011;5279;42.048;24.638;2022-11-15T12:24:13;15.88;;;13.75;;
10463;SDS011;5279;42.048;24.638;2022-11-15T12:26:46;15.60;;;13.55;;
10463;SDS011;5279;42.048;24.638;2022-11-15T12:29:19;17.05;;;14.57;;
10463;SDS011;5279;42.048;24.638;2022-11-15T12:31:53;16.27;;;13.57;;
10463;SDS011;5279;42.048;24.638;2022-11-15T12:46:05;17.95;;;14.55;;
10463;SDS011;5279;42.048;24.638;2022-11-15T12:54:51;16.75;;;14.20;;
10463;SDS011;5279;42.048;24.638;2022-11-15T12:57:35;15.63;;;14.13;;
10463;SDS011;5279;42.048;24.638;2022-11-15T13:15:35;15.88;;;13.85;;
10463;SDS011;5279;42.048;24.638;2022-11-15T13:21:04;15.70;;;13.82;;
10463;SDS011;5279;42.048;24.638;2022-11-15T13:24:02;15.85;;;14.18;;
10463;SDS011;5279;42.048;24.638;2022-11-15T13:26:29;15.93;;;14.02;;
10463;SDS011;5279;42.048;24.638;2022-11-15T13:28:58;17.20;;;15.45;;
10463;SDS011;5279;42.048;24.638;2022-11-15T13:31:27;17.67;;;14.73;;
10463;SDS011;5279;42.048;24.638;2022-11-15T13:33:58;15.87;;;14.10;;
10463;SDS011;5279;42.048;24.638;2022-11-15T13:36:28;17.73;;;15.93;;
10463;SDS011;5279;42.048;24.638;2022-11-15T13:38:59;17.00;;;15.30;;
10463;SDS011;5279;42.048;24.638;2022-11-15T13:41:28;17.93;;;16.13;;
10463;SDS011;5279;42.048;24.638;2022-11-15T13:43:57;18.00;;;16.20;;
10463;SDS011;5279;42.048;24.638;2022-11-15T13:46:26;18.87;;;17.03;;
10463;SDS011;5279;42.048;24.638;2022-11-15T13:48:55;18.57;;;16.70;;
10463;SDS011;5279;42.048;24.638;2022-11-15T13:54:26;20.90;;;18.47;;
10463;SDS011;5279;42.048;24.638;2022-11-15T13:56:57;19.33;;;17.33;;
10463;SDS011;5279;42.048;24.638;2022-11-15T13:59:28;19.63;;;17.67;;
10463;SDS011;5279;42.048;24.638;2022-11-15T14:02:10;18.67;;;16.87;;
10463;SDS011;5279;42.048;24.638;2022-11-15T14:04:45;19.20;;;16.57;;
10463;SDS011;5279;42.048;24.638;2022-11-15T14:07:16;19.60;;;16.77;;
10463;SDS011;5279;42.048;24.638;2022-11-15T14:09:44;22.67;;;18.37;;
10463;SDS011;5279;42.048;24.638;2022-11-15T14:12:25;20.67;;;18.13;;
10463;SDS011;5279;42.048;24.638;2022-11-15T14:14:56;20.63;;;17.57;;
10463;SDS011;5279;42.048;24.638;2022-11-15T14:17:34;20.30;;;18.20;;
10463;SDS011;5279;42.048;24.638;2022-11-15T14:22:56;20.67;;;17.83;;
10463;SDS011;5279;42.048;24.638;2022-11-15T14:25:24;20.63;;;18.30;;
10463;SDS011;5279;42.048;24.638;2022-11-15T14:30:42;20.50;;;17.27;;
10463;SDS011;5279;42.048;24.638;2022-11-15T14:33:18;19.13;;;17.13;;
10463;SDS011;5279;42.048;24.638;2022-11-15T14:35:47;21.07;;;17.83;;
10463;SDS011;5279;42.048;24.638;2022-11-15T14:38:14;22.07;;;18.00;;
10463;SDS011;5279;42.048;24.638;2022-11-15T14:40:41;23.30;;;18.20;;
10463;SDS011;5279;42.048;24.638;2022-11-15T14:43:09;20.67;;;17.67;;
10463;SDS011;5279;42.048;24.638;2022-11-15T14:45:37;21.13;;;17.00;;
10463;SDS011;5279;42.048;24.638;2022-11-15T14:48:06;22.47;;;18.93;;
10463;SDS011;5279;42.048;24.638;2022-11-15T14:50:34;19.53;;;16.60;;
10463;SDS011;5279;42.048;24.638;2022-11-15T14:53:01;20.23;;;16.43;;
10463;SDS011;5279;42.048;24.638;2022-11-15T14:55:30;19.97;;;16.90;;
10463;SDS011;5279;42.048;24.638;2022-11-15T14:58:00;20.77;;;18.57;;
10463;SDS011;5279;42.048;24.638;2022-11-15T15:00:28;22.93;;;17.83;;
10463;SDS011;5279;42.048;24.638;2022-11-15T15:02:55;22.13;;;17.87;;
10463;SDS011;5279;42.048;24.638;2022-11-15T15:05:24;21.73;;;18.07;;
10463;SDS011;5279;42.048;24.638;2022-11-15T15:07:52;22.50;;;18.80;;
10463;SDS011;5279;42.048;24.638;2022-11-15T15:10:19;19.53;;;16.83;;
10463;SDS011;5279;42.048;24.638;2022-11-15T15:12:48;23.40;;;18.27;;
10463;SDS011;5279;42.048;24.638;2022-11-15T15:15:16;21.47;;;18.87;;
10463;SDS011;5279;42.048;24.638;2022-11-15T15:17:48;22.03;;;18.37;;
10463;SDS011;5279;42.048;24.638;2022-11-15T15:20:15;24.87;;;19.23;;
10463;SDS011;5279;42.048;24.638;2022-11-15T15:22:43;23.23;;;19.40;;
10463;SDS011;5279;42.048;24.638;2022-11-15T15:25:27;23.63;;;18.63;;
10463;SDS011;5279;42.048;24.638;2022-11-15T15:27:57;24.77;;;18.83;;
10463;SDS011;5279;42.048;24.638;2022-11-15T15:30:24;22.27;;;18.80;;
10463;SDS011;5279;42.048;24.638;2022-11-15T15:32:52;19.73;;;17.07;;
10463;SDS011;5279;42.048;24.638;2022-11-15T15:35:19;22.67;;;18.57;;
10463;SDS011;5279;42.048;24.638;2022-11-15T15:37:47;22.90;;;18.43;;
10463;SDS011;5279;42.048;24.638;2022-11-15T15:40:16;24.27;;;19.40;;
10463;SDS011;5279;42.048;24.638;2022-11-15T15:42:45;24.13;;;19.73;;
10463;SDS011;5279;42.048;24.638;2022-11-15T15:45:12;24.20;;;19.53;;
10463;SDS011;5279;42.048;24.638;2022-11-15T15:47:40;23.97;;;19.33;;
10463;SDS011;5279;42.048;24.638;2022-11-15T15:50:18;21.73;;;18.37;;
10463;SDS011;5279;42.048;24.638;2022-11-15T15:52:50;27.97;;;20.27;;
10463;SDS011;5279;42.048;24.638;2022-11-15T15:55:18;27.23;;;19.93;;
10463;SDS011;5279;42.048;24.638;2022-11-15T15:57:45;23.83;;;19.93;;
10463;SDS011;5279;42.048;24.638;2022-11-15T16:00:12;25.70;;;18.63;;
10463;SDS011;5279;42.048;24.638;2022-11-15T16:02:41;24.73;;;20.00;;